Terminal Aerodrome Forecast
Issued by NWS Melbourne, FL

Home | Current Version | Previous Version | Text Only | Print | Product List | Glossary On
Versions: 1 2 3 4 5 6 7 8 9 10 11 12 13
000
FTUS42 KMLB 291100
TAFVRB
TAF
KVRB 291134Z 2912/3012 00000KT P6SM FEW035
     FM291600 09009KT P6SM VCTS SCT040CB
     FM292100 13004KT P6SM SCT040
     FM300400 13003KT P6SM FEW040=

USA.gov is the U.S. government's official web portal to all federal, state and local government web resources and services.